Uirapuru, Brazil
Current Conditions -  °F | °C
As of 9:00 PM on Friday 28 Nov 2014 (Local Time) from SBAN Reporting Station
Drizzle Drizzle  
Wind Chill: 64°   Ceiling: 2000
Heat Index: 64°   Visibility: 5mi
Dew Point: 63°   Wind: 2mph
Humidity: 94%   Direction: 40°NE
Pressure: 30.09"   Gusts: NA
Location:  14.29°S, 49.92°W
Report Text: SBAN 282300Z 04002KT 8000 -DZ BKN020 OVC100 18/17 Q1019
Loading
Personal Weather Stations






























Interactive Weather Map New forecast layout! Learn more

10-Day Weather Forecast

Advertisements
Track Severe Weather on mobile